Time;durP1;ratioP1;P1;durP2;ratioP2;P2;SDS_P1;SDS_P2;PMS_P1;PMS_P2;Temp;Humidity;BMP_temperature;BMP_pressure;BME280_temperature;BME280_humidity;BME280_pressure;Samples;Min_cycle;Max_cycle;Signal;HPM_P1;HPM_P2
2022/12/06 00:01:58;;;;;;;4.50;2.50;;;;;;;;;;4753993;30;20393;-76
2022/12/06 00:04:23;;;;;;;4.68;2.47;;;;;;;;;;4765217;30;20127;-77
2022/12/06 00:06:53;;;;;;;3.55;2.03;;;;;;;;;;4755167;30;20036;-77
2022/12/06 00:09:26;;;;;;;4.22;2.22;;;;;;;;;;4762290;30;20660;-77
2022/12/06 00:11:52;;;;;;;4.63;2.28;;;;;;;;;;4748053;30;20098;-76
2022/12/06 00:14:18;;;;;;;4.18;2.50;;;;;;;;;;4748128;30;20554;-77
2022/12/06 00:16:45;;;;;;;4.47;2.17;;;;;;;;;;4760049;30;20060;-76
2022/12/06 00:19:13;;;;;;;4.78;2.30;;;;;;;;;;4747977;30;20027;-76
2022/12/06 00:21:39;;;;;;;4.65;2.50;;;;;;;;;;4740684;30;20059;-77
2022/12/06 00:24:14;;;;;;;5.80;2.63;;;;;;;;;;4738476;30;20044;-76
2022/12/06 00:26:42;;;;;;;4.45;2.55;;;;;;;;;;4763839;30;20085;-76
2022/12/06 00:29:12;;;;;;;3.67;2.40;;;;;;;;;;4759237;30;20043;-77
2022/12/06 00:31:37;;;;;;;4.95;2.55;;;;;;;;;;4732420;30;20126;-77
2022/12/06 00:34:03;;;;;;;6.03;2.80;;;;;;;;;;4761372;30;20446;-77
2022/12/06 00:36:32;;;;;;;5.10;2.38;;;;;;;;;;4763695;30;20088;-77
2022/12/06 00:39:07;;;;;;;6.13;3.05;;;;;;;;;;4748141;30;20031;-76
2022/12/06 00:41:33;;;;;;;4.60;2.65;;;;;;;;;;4759871;30;20497;-77
2022/12/06 00:43:58;;;;;;;5.13;2.50;;;;;;;;;;4758618;30;20111;-77
2022/12/06 00:46:29;;;;;;;4.70;2.40;;;;;;;;;;4745602;30;20194;-76
2022/12/06 00:48:56;;;;;;;5.55;2.65;;;;;;;;;;4762022;30;20089;-77
2022/12/06 00:51:22;;;;;;;6.28;2.47;;;;;;;;;;4763121;30;20035;-77
2022/12/06 00:53:48;;;;;;;6.13;2.80;;;;;;;;;;4767996;30;20096;-76
2022/12/06 00:56:14;;;;;;;5.53;2.50;;;;;;;;;;4769157;30;20035;-77
2022/12/06 00:58:40;;;;;;;5.47;2.63;;;;;;;;;;4744191;30;20032;-76
2022/12/06 01:01:08;;;;;;;4.57;2.38;;;;;;;;;;4743937;30;20447;-77
2022/12/06 01:03:33;;;;;;;4.35;2.38;;;;;;;;;;4763305;30;20035;-77
2022/12/06 01:06:09;;;;;;;4.57;2.28;;;;;;;;;;4745243;30;20038;-77
2022/12/06 01:08:35;;;;;;;4.93;2.53;;;;;;;;;;4764093;30;20028;-76
2022/12/06 01:11:02;;;;;;;4.13;2.08;;;;;;;;;;4759263;30;20533;-77
2022/12/06 01:13:28;;;;;;;3.97;2.08;;;;;;;;;;4745813;30;20039;-76
2022/12/06 01:15:54;;;;;;;4.38;2.33;;;;;;;;;;4762441;30;20062;-77
2022/12/06 01:18:20;;;;;;;3.40;1.75;;;;;;;;;;4763088;30;20088;-76
2022/12/06 01:20:46;;;;;;;3.83;2.00;;;;;;;;;;4763352;30;20494;-77
2022/12/06 01:23:12;;;;;;;4.07;2.20;;;;;;;;;;4766403;30;20039;-77
2022/12/06 01:25:38;;;;;;;4.03;2.25;;;;;;;;;;4767167;30;20040;-77
2022/12/06 01:28:03;;;;;;;3.67;2.08;;;;;;;;;;4767849;30;20387;-77
2022/12/06 01:30:29;;;;;;;4.32;1.88;;;;;;;;;;4754224;30;20035;-77
2022/12/06 01:32:54;;;;;;;5.60;2.30;;;;;;;;;;4761948;30;20316;-77
2022/12/06 01:35:19;;;;;;;4.40;2.38;;;;;;;;;;4768178;30;20085;-76
2022/12/06 01:37:45;;;;;;;5.88;2.17;;;;;;;;;;4766991;30;20463;-76
2022/12/06 01:40:11;;;;;;;4.30;2.30;;;;;;;;;;4764751;30;20457;-76
2022/12/06 01:42:36;;;;;;;4.20;2.08;;;;;;;;;;4768575;30;20090;-77
2022/12/06 01:45:02;;;;;;;3.53;1.90;;;;;;;;;;4767340;30;20031;-77
2022/12/06 01:47:53;;;;;;;3.28;1.80;;;;;;;;;;4765395;30;20071;-77
2022/12/06 01:50:23;;;;;;;4.03;1.90;;;;;;;;;;4758399;30;20598;-76
2022/12/06 01:53:04;;;;;;;4.78;2.00;;;;;;;;;;4764529;30;20070;-76
2022/12/06 01:55:33;;;;;;;5.47;1.83;;;;;;;;;;4767805;30;20031;-76
2022/12/06 01:58:08;;;;;;;4.15;2.17;;;;;;;;;;4766374;30;20494;-75
2022/12/06 02:00:33;;;;;;;4.40;2.20;;;;;;;;;;4746344;30;20555;-76
2022/12/06 02:03:00;;;;;;;4.88;2.13;;;;;;;;;;4765787;30;20036;-76
2022/12/06 02:05:26;;;;;;;5.53;2.33;;;;;;;;;;4752886;30;20118;-76
2022/12/06 02:07:52;;;;;;;4.43;2.20;;;;;;;;;;4772587;30;20430;-76
2022/12/06 02:10:18;;;;;;;4.47;2.20;;;;;;;;;;4761289;30;20042;-76
2022/12/06 02:12:44;;;;;;;5.65;2.42;;;;;;;;;;4764626;30;20059;-76
2022/12/06 02:15:10;;;;;;;5.03;2.30;;;;;;;;;;4764564;30;20047;-76
2022/12/06 02:17:48;;;;;;;4.53;2.22;;;;;;;;;;4764991;30;20039;-77
2022/12/06 02:20:33;;;;;;;5.80;2.05;;;;;;;;;;4761403;30;20023;-77
2022/12/06 02:23:35;;;;;;;3.72;1.80;;;;;;;;;;4752439;30;20031;-77
2022/12/06 02:26:16;;;;;;;2.83;1.67;;;;;;;;;;4734376;30;20047;-77
2022/12/06 02:29:12;;;;;;;3.60;1.85;;;;;;;;;;4759168;30;20169;-77
2022/12/06 02:31:37;;;;;;;3.42;1.63;;;;;;;;;;4758341;30;20493;-77
2022/12/06 02:34:15;;;;;;;5.70;2.13;;;;;;;;;;4765616;30;20036;-77
2022/12/06 02:36:55;;;;;;;3.70;1.75;;;;;;;;;;4763216;30;20040;-76
2022/12/06 02:39:33;;;;;;;3.53;1.83;;;;;;;;;;4748138;30;20035;-77
2022/12/06 02:42:36;;;;;;;4.13;2.20;;;;;;;;;;4762871;30;20588;-77
2022/12/06 02:45:11;;;;;;;4.53;2.10;;;;;;;;;;4724485;30;20043;-76
2022/12/06 02:47:38;;;;;;;5.13;2.30;;;;;;;;;;4765984;30;20163;-77
2022/12/06 02:50:12;;;;;;;5.57;2.45;;;;;;;;;;4762444;30;20494;-77
2022/12/06 02:52:41;;;;;;;4.30;2.10;;;;;;;;;;4755840;30;20131;-77
2022/12/06 02:55:10;;;;;;;4.75;2.22;;;;;;;;;;4766065;30;20036;-76
2022/12/06 02:57:48;;;;;;;7.07;3.35;;;;;;;;;;4761961;30;20097;-77
2022/12/06 03:00:48;;;;;;;4.43;2.38;;;;;;;;;;4761948;30;20112;-77
2022/12/06 03:03:35;;;;;;;4.47;2.08;;;;;;;;;;4754590;30;20051;-77
2022/12/06 03:06:00;;;;;;;4.75;2.08;;;;;;;;;;4767931;30;20496;-77
2022/12/06 03:08:52;;;;;;;4.22;1.98;;;;;;;;;;4764215;30;20023;-77
2022/12/06 03:11:18;;;;;;;4.20;2.17;;;;;;;;;;4764201;30;20043;-77
2022/12/06 03:13:56;;;;;;;4.30;2.17;;;;;;;;;;4763100;30;20047;-77
2022/12/06 03:16:34;;;;;;;4.35;2.25;;;;;;;;;;4763822;30;20697;-76
2022/12/06 03:18:59;;;;;;;5.22;2.50;;;;;;;;;;4762252;30;20032;-77
2022/12/06 03:21:35;;;;;;;5.70;2.38;;;;;;;;;;4754373;30;20059;-77
2022/12/06 03:24:06;;;;;;;5.95;2.58;;;;;;;;;;4763155;30;20031;-77
2022/12/06 03:26:33;;;;;;;6.15;2.80;;;;;;;;;;4766638;30;20023;-77
2022/12/06 03:29:00;;;;;;;4.65;2.33;;;;;;;;;;4761767;30;20087;-77
2022/12/06 03:31:29;;;;;;;4.78;2.15;;;;;;;;;;4764310;30;20489;-77
2022/12/06 03:34:03;;;;;;;6.00;2.30;;;;;;;;;;4763419;30;20031;-76
2022/12/06 03:36:30;;;;;;;5.60;2.40;;;;;;;;;;4763607;30;20040;-77
2022/12/06 03:38:59;;;;;;;5.88;2.60;;;;;;;;;;4759478;30;20533;-76
2022/12/06 03:41:30;;;;;;;4.38;2.13;;;;;;;;;;4749604;30;20435;-77
2022/12/06 03:43:57;;;;;;;5.38;2.08;;;;;;;;;;4758727;30;20396;-76
2022/12/06 03:46:36;;;;;;;5.53;2.40;;;;;;;;;;4765212;30;20386;-77
2022/12/06 03:49:10;;;;;;;4.93;2.67;;;;;;;;;;4758481;30;20042;-77
2022/12/06 03:51:38;;;;;;;4.40;2.40;;;;;;;;;;4747270;30;20043;-77
2022/12/06 03:54:06;;;;;;;5.35;2.35;;;;;;;;;;4762177;30;20040;-77
2022/12/06 03:56:35;;;;;;;7.25;2.80;;;;;;;;;;4766168;30;20467;-77
2022/12/06 03:59:05;;;;;;;5.75;2.83;;;;;;;;;;4759602;30;20039;-77
2022/12/06 04:01:31;;;;;;;4.75;2.35;;;;;;;;;;4745060;30;20502;-76
2022/12/06 04:03:57;;;;;;;5.93;2.50;;;;;;;;;;4744984;30;20032;-77
2022/12/06 04:06:23;;;;;;;7.45;2.72;;;;;;;;;;4749423;30;20088;-76
2022/12/06 04:08:48;;;;;;;6.38;2.95;;;;;;;;;;4745416;30;20501;-77
2022/12/06 04:11:13;;;;;;;4.78;2.47;;;;;;;;;;4760666;30;20477;-77
2022/12/06 04:13:39;;;;;;;5.03;2.38;;;;;;;;;;4759187;30;20032;-77
2022/12/06 04:18:09;;;;;;;5.55;2.55;;;;;;;;;;4761766;30;20060;-76
2022/12/06 04:18:51;;;;;;;4.63;2.08;;;;;;;;;;4757682;30;20044;-76
2022/12/06 04:23:57;;;;;;;5.03;2.00;;;;;;;;;;4765232;30;20172;-76
2022/12/06 04:26:23;;;;;;;5.70;2.22;;;;;;;;;;4745617;30;20040;-76
2022/12/06 04:39:48;;;;;;;4.85;2.15;;;;;;;;;;4760009;30;20051;-76
2022/12/06 04:44:58;;;;;;;6.50;2.20;;;;;;;;;;4767701;30;20094;-76
2022/12/06 04:47:23;;;;;;;6.32;2.30;;;;;;;;;;4760158;30;20432;-77
2022/12/06 04:49:49;;;;;;;5.82;2.38;;;;;;;;;;4751043;30;20401;-76
2022/12/06 04:52:15;;;;;;;5.72;2.03;;;;;;;;;;4761650;30;20059;-76
2022/12/06 04:54:41;;;;;;;4.60;2.00;;;;;;;;;;4767111;30;20040;-76
2022/12/06 04:57:10;;;;;;;8.40;1.98;;;;;;;;;;4760673;30;20038;-77
2022/12/06 04:59:38;;;;;;;4.72;2.10;;;;;;;;;;4745672;30;20528;-77
2022/12/06 05:02:03;;;;;;;4.05;2.25;;;;;;;;;;4761141;30;20405;-77
2022/12/06 05:04:29;;;;;;;5.20;1.85;;;;;;;;;;4747938;30;20028;-77
2022/12/06 05:06:54;;;;;;;4.65;2.35;;;;;;;;;;4743078;30;20042;-77
2022/12/06 05:09:20;;;;;;;4.60;1.98;;;;;;;;;;4761840;30;20504;-76
2022/12/06 05:11:45;;;;;;;8.00;1.75;;;;;;;;;;4743438;30;20043;-77
2022/12/06 05:14:10;;;;;;;5.28;1.80;;;;;;;;;;4766937;30;20044;-77
2022/12/06 05:16:36;;;;;;;5.80;2.13;;;;;;;;;;4759831;30;20573;-76
2022/12/06 05:19:01;;;;;;;4.70;1.90;;;;;;;;;;4761529;30;20406;-76
2022/12/06 05:21:27;;;;;;;5.55;2.00;;;;;;;;;;4768005;30;20043;-76
2022/12/06 05:23:54;;;;;;;4.78;1.77;;;;;;;;;;4762659;30;20100;-78
2022/12/06 05:26:22;;;;;;;3.63;1.80;;;;;;;;;;4761938;30;20036;-76
2022/12/06 05:28:48;;;;;;;7.70;2.10;;;;;;;;;;4758378;30;20036;-77
2022/12/06 05:31:14;;;;;;;4.72;2.05;;;;;;;;;;4765755;30;20497;-76
2022/12/06 05:33:40;;;;;;;5.10;2.20;;;;;;;;;;4765089;30;20142;-77
2022/12/06 05:36:30;;;;;;;4.80;1.88;;;;;;;;;;4767468;30;20039;-77
2022/12/06 05:38:56;;;;;;;3.97;1.80;;;;;;;;;;4741811;30;20425;-77
2022/12/06 05:41:22;;;;;;;4.80;1.60;;;;;;;;;;4763223;30;20031;-77
2022/12/06 05:43:48;;;;;;;3.70;1.60;;;;;;;;;;4758353;30;20039;-77
2022/12/06 05:46:14;;;;;;;4.15;1.75;;;;;;;;;;4757912;30;20038;-76
2022/12/06 05:48:39;;;;;;;3.40;1.48;;;;;;;;;;4743473;30;20509;-76
2022/12/06 05:51:05;;;;;;;3.67;1.67;;;;;;;;;;4747433;30;20048;-77
2022/12/06 05:53:30;;;;;;;5.78;1.80;;;;;;;;;;4762191;30;20405;-77
2022/12/06 05:56:01;;;;;;;3.75;1.80;;;;;;;;;;4765580;30;20132;-77
2022/12/06 05:58:27;;;;;;;3.63;1.52;;;;;;;;;;4756961;30;21041;-77
2022/12/06 06:00:52;;;;;;;4.88;1.92;;;;;;;;;;4746411;30;20105;-77
2022/12/06 06:03:17;;;;;;;3.63;1.50;;;;;;;;;;4760841;30;20028;-77
2022/12/06 06:05:48;;;;;;;4.25;1.45;;;;;;;;;;4761673;30;20469;-77
2022/12/06 06:08:15;;;;;;;3.78;1.52;;;;;;;;;;4753879;30;20055;-76
2022/12/06 06:10:40;;;;;;;4.55;1.80;;;;;;;;;;4763839;30;20038;-77
2022/12/06 06:13:06;;;;;;;2.67;1.38;;;;;;;;;;4744942;30;20047;-77
2022/12/06 06:15:32;;;;;;;2.88;1.35;;;;;;;;;;4756642;30;20501;-76
2022/12/06 06:17:58;;;;;;;3.50;1.40;;;;;;;;;;4744064;30;20061;-77
2022/12/06 06:20:23;;;;;;;2.72;1.50;;;;;;;;;;4742135;30;20202;-77
2022/12/06 06:22:49;;;;;;;4.30;1.70;;;;;;;;;;4762842;30;20039;-77
2022/12/06 06:25:14;;;;;;;4.03;1.70;;;;;;;;;;4751571;30;20035;-77
2022/12/06 06:27:39;;;;;;;2.90;1.58;;;;;;;;;;4763373;30;20663;-76
2022/12/06 06:30:07;;;;;;;3.30;1.60;;;;;;;;;;4765185;30;20081;-77
2022/12/06 06:32:33;;;;;;;4.45;2.13;;;;;;;;;;4762905;30;20158;-77
2022/12/06 06:34:58;;;;;;;3.28;1.50;;;;;;;;;;4759413;30;20122;-77
2022/12/06 06:37:24;;;;;;;5.18;1.77;;;;;;;;;;4766089;30;20043;-77
2022/12/06 06:39:49;;;;;;;3.85;1.60;;;;;;;;;;4760300;30;20457;-76
2022/12/06 06:42:14;;;;;;;4.53;1.88;;;;;;;;;;4745914;30;20036;-77
2022/12/06 06:44:40;;;;;;;2.80;1.48;;;;;;;;;;4766454;30;20028;-77
2022/12/06 06:47:05;;;;;;;5.05;1.65;;;;;;;;;;4767723;30;20024;-77
2022/12/06 06:49:31;;;;;;;4.10;1.70;;;;;;;;;;4763981;30;20186;-77
2022/12/06 06:51:56;;;;;;;4.03;1.48;;;;;;;;;;4764123;30;20035;-77
2022/12/06 06:54:22;;;;;;;2.58;1.20;;;;;;;;;;4765114;30;20032;-76
2022/12/06 06:56:48;;;;;;;3.40;1.48;;;;;;;;;;4761466;30;20036;-76
2022/12/06 06:59:13;;;;;;;3.83;1.60;;;;;;;;;;4764549;30;20038;-77
2022/12/06 07:01:39;;;;;;;3.30;1.55;;;;;;;;;;4759867;30;20048;-77
2022/12/06 07:04:04;;;;;;;4.13;1.80;;;;;;;;;;4761586;30;21661;-77
2022/12/06 07:06:29;;;;;;;4.30;1.50;;;;;;;;;;4748241;30;20169;-77
2022/12/06 07:08:55;;;;;;;4.53;1.55;;;;;;;;;;4767000;30;20031;-77
2022/12/06 07:11:22;;;;;;;6.25;1.70;;;;;;;;;;4764903;30;20405;-77
2022/12/06 07:13:47;;;;;;;4.28;1.52;;;;;;;;;;4748142;30;20036;-76
2022/12/06 07:16:15;;;;;;;3.97;1.70;;;;;;;;;;4761934;30;20064;-77
2022/12/06 07:18:41;;;;;;;2.35;1.20;;;;;;;;;;4763099;30;20047;-76
2022/12/06 07:21:09;;;;;;;4.13;1.60;;;;;;;;;;4756049;30;20070;-77
2022/12/06 07:23:35;;;;;;;2.67;1.40;;;;;;;;;;4757312;30;20098;-77
2022/12/06 07:26:11;;;;;;;3.00;1.42;;;;;;;;;;4754765;30;20123;-77
2022/12/06 07:28:37;;;;;;;3.05;1.60;;;;;;;;;;4756056;30;20044;-77
2022/12/06 07:31:11;;;;;;;3.92;1.60;;;;;;;;;;4740849;30;20023;-77
2022/12/06 07:33:37;;;;;;;2.72;1.45;;;;;;;;;;4744350;30;20490;-77
2022/12/06 07:36:03;;;;;;;3.67;1.63;;;;;;;;;;4752899;30;20092;-77
2022/12/06 07:38:28;;;;;;;4.65;1.77;;;;;;;;;;4754942;30;20074;-77
2022/12/06 07:40:58;;;;;;;3.63;1.88;;;;;;;;;;4759081;30;20486;-77
2022/12/06 07:46:11;;;;;;;3.40;1.42;;;;;;;;;;4755791;30;20073;-77
2022/12/06 07:48:37;;;;;;;4.55;1.60;;;;;;;;;;4760115;30;20115;-77
2022/12/06 07:51:06;;;;;;;2.90;1.55;;;;;;;;;;4741934;30;20177;-77
2022/12/06 07:53:31;;;;;;;5.95;1.90;;;;;;;;;;4742126;30;20043;-77
2022/12/06 07:55:56;;;;;;;4.28;1.88;;;;;;;;;;4763052;30;20386;-77
2022/12/06 07:58:22;;;;;;;3.17;1.67;;;;;;;;;;4756116;30;20028;-77
2022/12/06 08:00:47;;;;;;;4.72;1.73;;;;;;;;;;4747083;30;20094;-77
2022/12/06 08:03:13;;;;;;;5.50;1.85;;;;;;;;;;4754778;30;20027;-77
2022/12/06 08:05:38;;;;;;;6.40;2.13;;;;;;;;;;4740316;30;20036;-76
2022/12/06 08:08:03;;;;;;;6.00;2.17;;;;;;;;;;4767979;30;20042;-77
2022/12/06 08:10:29;;;;;;;3.47;1.77;;;;;;;;;;4746248;30;20073;-77
2022/12/06 08:12:54;;;;;;;4.18;1.75;;;;;;;;;;4750700;30;20096;-77
2022/12/06 08:15:20;;;;;;;4.35;1.80;;;;;;;;;;4761833;30;20055;-77
2022/12/06 08:17:45;;;;;;;3.85;1.85;;;;;;;;;;4757352;30;20085;-76
2022/12/06 08:20:11;;;;;;;3.47;1.85;;;;;;;;;;4769263;30;20028;-76
2022/12/06 08:22:36;;;;;;;4.97;1.77;;;;;;;;;;4764454;30;20027;-77
2022/12/06 08:25:02;;;;;;;3.60;1.80;;;;;;;;;;4747153;30;20024;-76
2022/12/06 08:27:27;;;;;;;2.97;1.52;;;;;;;;;;4749448;30;20032;-77
2022/12/06 08:29:53;;;;;;;2.85;1.25;;;;;;;;;;4758919;30;20406;-76
2022/12/06 08:32:18;;;;;;;4.50;2.00;;;;;;;;;;4763305;29;20051;-77
2022/12/06 08:34:43;;;;;;;5.10;1.77;;;;;;;;;;4760919;30;20132;-76
2022/12/06 08:37:10;;;;;;;2.92;1.58;;;;;;;;;;4763127;30;20039;-76
2022/12/06 08:39:35;;;;;;;3.38;1.55;;;;;;;;;;4745740;30;20023;-76
2022/12/06 08:42:02;;;;;;;3.95;1.50;;;;;;;;;;4757515;30;20051;-77
2022/12/06 08:44:29;;;;;;;3.25;1.63;;;;;;;;;;4764821;30;20032;-76
2022/12/06 08:46:56;;;;;;;4.05;1.45;;;;;;;;;;4755392;30;20114;-77
2022/12/06 08:49:23;;;;;;;3.40;1.75;;;;;;;;;;4752887;30;20035;-76
2022/12/06 08:51:48;;;;;;;4.53;1.70;;;;;;;;;;4745074;30;20485;-76
2022/12/06 08:54:16;;;;;;;5.25;1.85;;;;;;;;;;4745779;30;20085;-77
2022/12/06 08:56:41;;;;;;;3.70;1.60;;;;;;;;;;4760656;30;20545;-77
2022/12/06 08:59:07;;;;;;;2.85;1.50;;;;;;;;;;4764100;30;20158;-76
2022/12/06 09:01:33;;;;;;;3.22;1.70;;;;;;;;;;4766588;30;20164;-77
2022/12/06 09:04:00;;;;;;;3.25;1.50;;;;;;;;;;4763083;30;20379;-77
2022/12/06 09:06:26;;;;;;;2.90;1.40;;;;;;;;;;4748851;30;20512;-77
2022/12/06 09:08:52;;;;;;;3.50;1.80;;;;;;;;;;4756693;30;20042;-77
2022/12/06 09:11:18;;;;;;;3.13;1.67;;;;;;;;;;4756459;30;20028;-76
2022/12/06 09:13:44;;;;;;;4.43;1.67;;;;;;;;;;4746601;30;20036;-77
2022/12/06 09:16:15;;;;;;;3.03;1.60;;;;;;;;;;4748481;30;20051;-76
2022/12/06 09:18:42;;;;;;;3.83;1.70;;;;;;;;;;4764061;30;20043;-77
2022/12/06 09:21:29;;;;;;;3.25;1.55;;;;;;;;;;4766194;30;20132;-76
2022/12/06 09:23:55;;;;;;;2.78;1.58;;;;;;;;;;4765077;30;20615;-77
2022/12/06 09:26:21;;;;;;;4.20;1.70;;;;;;;;;;4746687;30;20043;-77
2022/12/06 09:28:50;;;;;;;2.97;1.70;;;;;;;;;;4752722;30;20499;-77
2022/12/06 09:31:17;;;;;;;2.53;1.40;;;;;;;;;;4762495;30;20084;-76
2022/12/06 09:33:43;;;;;;;4.45;1.55;;;;;;;;;;4741009;30;20036;-77
2022/12/06 09:36:26;;;;;;;2.95;1.50;;;;;;;;;;4745642;30;20047;-76
2022/12/06 09:38:57;;;;;;;2.83;1.40;;;;;;;;;;4757967;30;20106;-77
2022/12/06 09:41:56;;;;;;;3.30;1.48;;;;;;;;;;4759861;30;20039;-76
2022/12/06 09:44:24;;;;;;;4.10;1.48;;;;;;;;;;4754906;30;20054;-77
2022/12/06 09:47:11;;;;;;;2.63;1.40;;;;;;;;;;4762735;30;20034;-76
2022/12/06 09:49:48;;;;;;;3.10;1.33;;;;;;;;;;4762986;30;20036;-76
2022/12/06 09:52:36;;;;;;;4.03;1.48;;;;;;;;;;4762462;30;20031;-76
2022/12/06 09:55:22;;;;;;;3.40;1.70;;;;;;;;;;4765064;30;20045;-76
2022/12/06 09:57:57;;;;;;;3.13;1.35;;;;;;;;;;4764368;30;20153;-76
2022/12/06 10:00:23;;;;;;;3.25;1.40;;;;;;;;;;4767954;30;20036;-76
2022/12/06 10:03:17;;;;;;;3.20;1.45;;;;;;;;;;4753321;30;20052;-76
2022/12/06 10:05:54;;;;;;;;;;;;;;;;;;4761754;30;20043;-77
2022/12/06 10:08:44;;;;;;;4.30;1.60;;;;;;;;;;4771541;30;20397;-77
2022/12/06 10:11:25;;;;;;;3.10;1.40;;;;;;;;;;4765983;30;20052;-76
2022/12/06 10:14:32;;;;;;;4.22;1.80;;;;;;;;;;4770784;30;20034;-77
2022/12/06 10:17:25;;;;;;;5.32;1.50;;;;;;;;;;4768976;30;20051;-77
2022/12/06 10:20:10;;;;;;;4.10;1.85;;;;;;;;;;4765308;30;20051;-76
2022/12/06 10:23:13;;;;;;;3.50;1.73;;;;;;;;;;4765110;30;20032;-77
2022/12/06 10:26:00;;;;;;;3.35;1.60;;;;;;;;;;4767783;30;20038;-76
2022/12/06 10:28:41;;;;;;;4.72;1.50;;;;;;;;;;4752104;30;20058;-77
2022/12/06 10:31:22;;;;;;;4.57;1.63;;;;;;;;;;4750298;30;20147;-76
2022/12/06 10:33:57;;;;;;;5.35;1.70;;;;;;;;;;4750024;30;20074;-76
2022/12/06 10:36:54;;;;;;;5.07;1.83;;;;;;;;;;4766544;30;20036;-76
2022/12/06 10:39:22;;;;;;;3.10;1.42;;;;;;;;;;4766509;30;20123;-76
2022/12/06 10:42:26;;;;;;;4.22;1.80;;;;;;;;;;4760866;30;20389;-77
2022/12/06 10:48:39;;;;;;;4.25;1.88;;;;;;;;;;4768014;30;20124;-76
2022/12/06 10:51:10;;;;;;;5.80;1.95;;;;;;;;;;4768041;30;20036;-76
2022/12/06 10:53:46;;;;;;;4.18;1.67;;;;;;;;;;4748134;30;20435;-76
2022/12/06 10:56:28;;;;;;;5.38;1.88;;;;;;;;;;4765474;30;20677;-76
2022/12/06 10:59:26;;;;;;;4.77;1.90;;;;;;;;;;4765697;30;20394;-77
2022/12/06 11:01:53;;;;;;;4.50;1.85;;;;;;;;;;4727622;30;20048;-77
2022/12/06 11:04:24;;;;;;;3.20;1.50;;;;;;;;;;4750060;30;20031;-76
2022/12/06 11:06:54;;;;;;;3.83;1.80;;;;;;;;;;4768635;30;20365;-76
2022/12/06 11:09:38;;;;;;;3.35;1.75;;;;;;;;;;4756150;30;20088;-76
2022/12/06 11:12:20;;;;;;;3.65;1.92;;;;;;;;;;4767600;30;20039;-77
2022/12/06 11:14:51;;;;;;;5.57;2.00;;;;;;;;;;4753324;30;20048;-76
2022/12/06 11:17:33;;;;;;;2.80;1.58;;;;;;;;;;4764295;30;20032;-76
2022/12/06 11:20:23;;;;;;;3.33;1.65;;;;;;;;;;4774633;30;20031;-76
2022/12/06 11:23:05;;;;;;;4.72;1.80;;;;;;;;;;4772508;30;20106;-76
2022/12/06 11:25:55;;;;;;;6.88;2.22;;;;;;;;;;4764214;30;20498;-76
2022/12/06 11:28:40;;;;;;;4.10;1.50;;;;;;;;;;4764399;30;20067;-77
2022/12/06 11:31:37;;;;;;;3.38;1.70;;;;;;;;;;4766629;30;20237;-77
2022/12/06 11:34:05;;;;;;;4.75;2.75;;;;;;;;;;4744001;30;20035;-76
2022/12/06 11:36:31;;;;;;;7.50;2.25;;;;;;;;;;4767138;30;20058;-76
2022/12/06 11:38:58;;;;;;;3.60;1.90;;;;;;;;;;4756342;30;20047;-76
2022/12/06 11:41:32;;;;;;;3.60;1.52;;;;;;;;;;4761732;30;20032;-76
2022/12/06 11:43:58;;;;;;;3.88;1.75;;;;;;;;;;4748092;30;20477;-76
2022/12/06 11:46:24;;;;;;;4.53;2.10;;;;;;;;;;4759143;30;20038;-76
2022/12/06 11:48:50;;;;;;;3.72;1.58;;;;;;;;;;4760230;30;20478;-76
2022/12/06 11:51:22;;;;;;;5.78;1.70;;;;;;;;;;4760625;30;20493;-76
2022/12/06 11:54:06;;;;;;;4.47;1.77;;;;;;;;;;4769506;30;20067;-76
2022/12/06 11:56:36;;;;;;;4.30;1.50;;;;;;;;;;4763513;30;20040;-76
2022/12/06 11:59:23;;;;;;;4.88;1.85;;;;;;;;;;4769807;30;20400;-76
2022/12/06 12:01:50;;;;;;;4.15;1.50;;;;;;;;;;4751298;30;20070;-76
2022/12/06 12:04:37;;;;;;;7.25;1.70;;;;;;;;;;4749369;30;20044;-76
2022/12/06 12:07:13;;;;;;;3.28;1.58;;;;;;;;;;4766894;30;20505;-76
2022/12/06 12:09:59;;;;;;;4.22;1.60;;;;;;;;;;4746352;30;20371;-76
2022/12/06 12:15:35;;;;;;;5.13;2.17;;;;;;;;;;4734555;30;20048;-76
2022/12/06 12:18:03;;;;;;;3.35;1.83;;;;;;;;;;4766945;30;20036;-76
2022/12/06 12:20:32;;;;;;;3.85;1.77;;;;;;;;;;4768105;30;20052;-76
2022/12/06 12:22:58;;;;;;;3.63;1.73;;;;;;;;;;4765890;30;20118;-76
2022/12/06 12:25:29;;;;;;;4.88;1.90;;;;;;;;;;4751827;30;20123;-76
2022/12/06 12:27:56;;;;;;;4.28;2.05;;;;;;;;;;4753008;30;20033;-76
2022/12/06 12:30:28;;;;;;;4.07;2.00;;;;;;;;;;4754695;30;20062;-76
2022/12/06 12:33:05;;;;;;;6.25;1.92;;;;;;;;;;4759025;30;20039;-76
2022/12/06 12:35:39;;;;;;;3.67;1.60;;;;;;;;;;4763538;30;20054;-76
2022/12/06 12:38:08;;;;;;;3.95;1.73;;;;;;;;;;4769673;30;20403;-76
2022/12/06 12:40:48;;;;;;;4.32;1.88;;;;;;;;;;4770524;30;20039;-76
2022/12/06 12:43:23;;;;;;;4.05;1.65;;;;;;;;;;4770524;30;20122;-76
2022/12/06 12:46:23;;;;;;;3.92;1.80;;;;;;;;;;4769496;30;20084;-76
2022/12/06 12:48:50;;;;;;;2.58;1.45;;;;;;;;;;4751290;30;20482;-76
2022/12/06 12:51:33;;;;;;;3.20;1.60;;;;;;;;;;4767586;30;20038;-76
2022/12/06 12:54:05;;;;;;;3.35;1.55;;;;;;;;;;4754524;30;20028;-76
2022/12/06 12:56:33;;;;;;;3.58;1.45;;;;;;;;;;4751398;30;20093;-76
2022/12/06 12:59:03;;;;;;;2.85;1.40;;;;;;;;;;4762752;30;20123;-76
2022/12/06 13:01:38;;;;;;;4.40;1.95;;;;;;;;;;4756514;30;20040;-76
2022/12/06 13:04:27;;;;;;;4.35;1.67;;;;;;;;;;4763785;30;20438;-75
2022/12/06 13:07:01;;;;;;;5.93;2.20;;;;;;;;;;4767481;30;20675;-76
2022/12/06 13:09:39;;;;;;;4.30;1.92;;;;;;;;;;4750056;30;20035;-75
2022/12/06 13:12:12;;;;;;;3.35;1.52;;;;;;;;;;4769299;30;20043;-75
2022/12/06 13:14:43;;;;;;;3.50;1.67;;;;;;;;;;4767487;30;20066;-76
2022/12/06 13:17:12;;;;;;;4.10;1.65;;;;;;;;;;4767153;30;20177;-76
2022/12/06 13:19:42;;;;;;;2.75;1.30;;;;;;;;;;4768292;30;20482;-75
2022/12/06 13:22:22;;;;;;;3.47;1.50;;;;;;;;;;4772763;30;20491;-76
2022/12/06 13:24:57;;;;;;;5.18;1.50;;;;;;;;;;4769616;30;20032;-76
2022/12/06 13:27:24;;;;;;;2.47;1.23;;;;;;;;;;4765951;30;20074;-75
2022/12/06 13:30:07;;;;;;;3.25;1.13;;;;;;;;;;4755221;30;20574;-76
2022/12/06 13:32:39;;;;;;;3.40;1.80;;;;;;;;;;4768693;30;20394;-75
2022/12/06 13:35:17;;;;;;;2.97;1.17;;;;;;;;;;4770522;30;20042;-75
2022/12/06 13:37:45;;;;;;;4.10;1.73;;;;;;;;;;4756053;30;20144;-76
2022/12/06 13:40:32;;;;;;;3.45;1.38;;;;;;;;;;4764460;30;20512;-75
2022/12/06 13:42:59;;;;;;;3.13;1.35;;;;;;;;;;4771430;30;20036;-75
2022/12/06 13:45:45;;;;;;;4.55;1.60;;;;;;;;;;4752043;30;20032;-76
2022/12/06 13:48:23;;;;;;;3.65;1.48;;;;;;;;;;4768202;30;20032;-76
2022/12/06 13:51:00;;;;;;;4.60;1.50;;;;;;;;;;4748859;30;20040;-76
2022/12/06 13:53:32;;;;;;;2.28;1.30;;;;;;;;;;4771363;30;20043;-75
2022/12/06 13:56:16;;;;;;;3.67;1.30;;;;;;;;;;4764737;30;20032;-76
2022/12/06 13:58:49;;;;;;;3.45;1.13;;;;;;;;;;4768892;30;20031;-75
2022/12/06 14:01:44;;;;;;;;;;;;;;;;;;4757866;30;20508;-76
2022/12/06 14:04:25;;;;;;;2.38;1.10;;;;;;;;;;4734227;30;19919;-75
2022/12/06 14:06:59;;;;;;;3.10;1.33;;;;;;;;;;4758533;30;20031;-75
2022/12/06 14:09:33;;;;;;;5.00;1.60;;;;;;;;;;4771143;30;20512;-75
2022/12/06 14:11:59;;;;;;;5.90;1.83;;;;;;;;;;4766233;30;20032;-75
2022/12/06 14:14:25;;;;;;;4.35;1.73;;;;;;;;;;4771197;30;20121;-75
2022/12/06 14:16:53;;;;;;;4.90;1.92;;;;;;;;;;4766553;30;20524;-76
2022/12/06 14:19:20;;;;;;;3.83;2.15;;;;;;;;;;4754894;30;20405;-75
2022/12/06 14:22:20;;;;;;;7.35;1.98;;;;;;;;;;4769957;30;20062;-76
2022/12/06 14:25:04;;;;;;;4.20;1.95;;;;;;;;;;4765545;30;20055;-76
2022/12/06 14:27:40;;;;;;;4.40;2.03;;;;;;;;;;4772197;30;20028;-75
2022/12/06 14:30:24;;;;;;;5.00;2.40;;;;;;;;;;4768018;30;20040;-76
2022/12/06 14:32:52;;;;;;;4.80;2.03;;;;;;;;;;4769302;30;20036;-75
2022/12/06 14:35:19;;;;;;;3.75;2.03;;;;;;;;;;4774381;30;20038;-75
2022/12/06 14:37:49;;;;;;;5.05;2.33;;;;;;;;;;4768602;30;20032;-75
2022/12/06 14:40:24;;;;;;;4.70;2.17;;;;;;;;;;4769005;30;20116;-75
2022/12/06 14:43:13;;;;;;;5.97;2.25;;;;;;;;;;4751776;30;20093;-76
2022/12/06 14:45:39;;;;;;;7.32;2.40;;;;;;;;;;4763476;30;20123;-76
2022/12/06 14:48:05;;;;;;;4.70;2.30;;;;;;;;;;4771113;30;20428;-76
2022/12/06 14:50:43;;;;;;;4.53;2.10;;;;;;;;;;4770356;30;20031;-75
2022/12/06 14:53:14;;;;;;;4.35;1.70;;;;;;;;;;4768031;30;20096;-76
2022/12/06 14:55:55;;;;;;;3.22;1.60;;;;;;;;;;4755807;30;20127;-76
2022/12/06 14:58:24;;;;;;;5.53;2.15;;;;;;;;;;4766167;30;20055;-76
2022/12/06 15:00:57;;;;;;;4.35;2.13;;;;;;;;;;4753720;30;20126;-76
2022/12/06 15:03:34;;;;;;;5.00;2.17;;;;;;;;;;4756269;30;20036;-76
2022/12/06 15:06:20;;;;;;;7.50;1.75;;;;;;;;;;4768694;30;20032;-75
2022/12/06 15:08:55;;;;;;;5.32;2.25;;;;;;;;;;4767964;30;20027;-75
2022/12/06 15:14:34;;;;;;;4.43;1.70;;;;;;;;;;4770053;30;20600;-75
2022/12/06 15:17:08;;;;;;;4.15;1.80;;;;;;;;;;4765149;30;20057;-75
2022/12/06 15:19:37;;;;;;;3.45;1.70;;;;;;;;;;4766236;30;20081;-75
2022/12/06 15:22:14;;;;;;;3.35;1.60;;;;;;;;;;4768239;30;20541;-76
2022/12/06 15:24:39;;;;;;;3.20;1.67;;;;;;;;;;4760444;30;20035;-76
2022/12/06 15:27:05;;;;;;;4.85;2.17;;;;;;;;;;4770096;30;20027;-76
2022/12/06 15:29:30;;;;;;;5.45;2.10;;;;;;;;;;4768862;30;20031;-75
2022/12/06 15:31:55;;;;;;;5.20;2.00;;;;;;;;;;4763993;30;20031;-75
2022/12/06 15:34:33;;;;;;;5.00;2.15;;;;;;;;;;4764336;30;20081;-75
2022/12/06 15:36:59;;;;;;;6.03;2.00;;;;;;;;;;4763385;30;20577;-75
2022/12/06 15:39:26;;;;;;;5.22;2.00;;;;;;;;;;4769083;30;20044;-75